Kulusuk, Greenland

11:28 AM WGT on October 31, 2014 (GMT -0300)
Kulusuk | Change Station
CLOSE
Current Station
Personal Weather Station
Location: Kulusuk Bygd, EASTGREENLAND
Elevation: 90 ft
Nearby Weather Stations

Elev 90 ft 65.58 °N, 37.19 °W | Updated 44 seconds ago

Partly Cloudy
Partly Cloudy
29.8 °F
Feels Like 22 °F
N
8.0
Wind Variable Wind from NNE
Gusts 8.0 mph

Today
High -- | Low -- °F
--% Chance of Precip.
Yesterday
High -- | Low -- °F
Precip. -- in
7:17 AM 3:06 PM
First Quarter, 55% visible
Pressure 29.80 in
Visibility 6.2 miles
Clouds Few 17000 ft
Windchill 22 °F
Dew Point 17 °F
Humidity 59%
Rainfall 0.00 in
Snow Depth Not available.
UV 0 out of 12
Pollen Not available.
Air Quality Not available.
Flu Activity Not available.
METAR BGKK 311350Z 24003KT 9999 FEW170 M04/M12 Q1009

More Conditions Fewer Conditions

Pressure 29.80 in
Visibility 6.2 miles
Clouds Few 17000 ft
Windchill 22 °F
Dew Point 17 °F
Humidity 59%
Rainfall 0.00 in
Snow Depth Not available.
UV 0 out of 12
Pollen Not available.
Air Quality Not available.
Flu Activity Not available.
METAR BGKK 311350Z 24003KT 9999 FEW170 M04/M12 Q1009

More Conditions Fewer Conditions

10-Day Weather Forecast

Almanac

Astronomy

Oct. 31, 2014 Rise Set
Actual Time
Civil Twilight
Nautical Twilight
Astronomical Twilight
Moon
Length of Visible Light
Length of Day
Tomorrow will be .
, % of the Moon is Illuminated

Today's Extremes

Country Highs Country Lows

Community

WunderPhotos

Upload Photos

1,766,617 photos uploaded!

WunderBlogs® & News

Nearby

Air Quality

  Air Quality AQ Index Pollutant
Not available.

Snow Depth

Station Depth Elevation

Earthquake Activity

City Distance Mag. Time & Date
Minimum magnitude displayed is 2.5.

Coastal Water Temperatures

Place Temperature

Nearby Weather Stations